Rechercher aéroport 
image banner adimage banner adimage banner ad
image banner ad

PN03 - Abington Memorial Hospital

Situé à Abington, United States

ICAO - PN03, IATA -

Données fournies par Airmate  

Information générale

Coordonnées: N40°7'9" W75°7'12"
Élévation : 436 feet MSL.
Variation magnétique : -12° East
Voir autres Aéroports à Pennsylvania

Données opérationnelles

Special qualification required
Heure actuelle UTC:
Heure actuelle locale:
Météo à : KPNE - Northeast Philadelphia ( 10 km )
METAR: KPNE 150554Z AUTO 00000KT 9SM -RA FEW007 SCT023 OVC110 19/18 A2980 RMK AO2 LTG DSNT SE AND S TSB14E37 SLP090 P0016 60038 T01890178 10272 20183 50004
TAF: KPNE 150523Z 1506/1606 VRB03KT P6SM -RA SCT012 OVC050 TEMPO 1506/1508 2SM TSRA BR OVC015CB FM150800 29006KT P6SM BKN035 TEMPO 1508/1512 2SM BR OVC015 FM151400 30008G16KT P6SM BKN050 FM152300 32006KT P6SM SCT050
Voir NOTAMs / SUP AIP / TFR affectant cet aéroport [VIEW]
Fréquences de communication: [VIEW]

Pistes:

Coordonnées de l'aéroport

Adresse: Abington United States

Vue satellite de PN03